Tiempo atmosférico en la estación meteorológica de Navalvillar De Ibor, Cáceres (923 m.)



Fecha
DESCASC
Temp. máxima en grados centígrados (hora)
DESCASC
Temp. mínima en grados centígrados (hora)
DESCASC
Temp. media en grados centígrados
DESCASC
Racha de viento máxima en m/sg (hora)
DESCASC
Velocidad máxima media en intervalos de 10 minutos(hora)
DESCASC
Precipitaciones diarias en mm
DESCASC
Precipitaciones de 00:00 a 06:00 en mm
DESCASC
Precipitaciones de 06:00 a 12:00 en mm
DESCASC
Precipitaciones de 12:00 a 18:00 en mm
DESCASC
Precipitaciones de 18:00 a 24:00 en mm
DESCASC
10-01-2020 8.8 (14:50) 1.6 (00:00) 5.2 9.72 (12:10) 3.33 (10:10) 0 0 0 0 0
13-01-2020 8.9 (16:20) 0.6 (00:00) 4.7 6.94 (22:50) 3.33 (22:50) 0 0 0 0 0
03-01-2020 8.9 (14:00) 2.6 (00:00) 5.7 6.94 (23:59) 2.5 (23:59) 0 0 0 0 0
17-01-2020 9.2 (15:10) 4.5 (00:00) 6.8 16.11 (02:00) 3.61 (09:20) 0.4 0.4 0 0 0
05-01-2020 9.4 (14:40) 2.3 (00:00) 5.8 8.06 (00:20) 3.89 (00:20) 0 0 0 0 0
04-01-2020 9.4 (13:30) 5.6 (00:00) 7.5 9.72 (10:30) 3.89 (21:40) 0 0 0 0 0
15-01-2020 9.7 (17:10) 5.3 (00:00) 7.5 11.67 (10:00) 4.44 (10:20) 0.8 0 0.8 0 0
14-01-2020 10 (14:50) 0.8 (00:00) 5.4 8.33 (22:10) 2.78 (13:30) 0 0 0 0 0
12-01-2020 10.3 (16:00) 0.6 (00:00) 5.5 3.89 (14:20) 1.94 (14:20) 0 0 0 0 0
22-12-2019 10.6 (16:40) 7.9 (00:00) 9.3 20 (16:40) 7.78 (00:40) 0 0 0 0 0
11-01-2020 10.8 (15:50) 1.9 (00:00) 6.4 8.06 (05:40) 3.33 (10:40) 0 0 0 0 0
07-01-2020 11.3 (14:00) 4.4 (00:00) 7.9 2.5 (06:30) 2.22 (17:20) 0 0 0 0 0
31-12-2019 11.9 (14:00) 4.8 (00:00) 8.3 2.5 (03:10) 2.22 (03:10) 0 0 0 0 0
06-01-2020 12 (15:00) 2.9 (00:00) 7.5 3.33 (15:00) 1.94 (17:20) 0 0 0 0 0
19-12-2019 12.1 (22:20) 8.4 (00:00) 10.3 25.56 (22:10) 9.44 (19:50) 48.2 7.2 1.6 14.4 25
23-12-2019 12.1 (14:00) 4.2 (00:00) 8.2 7.5 (00:10) 3.61 (00:10) 0 0 0 0 0
30-12-2019 12.2 (14:10) 5.2 (00:00) 8.7 2.78 (02:10) 2.22 (02:20) 0 0 0 0 0
01-01-2020 12.6 (14:40) 5.1 (00:00) 8.9 2.5 (16:50) 1.94 (17:00) 0 0 0 0 0
08-01-2020 12.6 (14:10) 5 (00:00) 8.8 2.5 (23:10) 1.67 (00:10) 0 0 0 0 0
16-01-2020 12.7 (15:30) 7.2 (00:00) 9.9 10.83 (23:40) 4.72 (23:30) 0.6 0.4 0 0 0.2
20-12-2019 12.9 (19:50) 9.5 (00:00) 11.2 30 (17:50) 10.56 (17:00) 99 35 10.8 25.4 27.8
26-12-2019 12.9 (13:00) 7.6 (00:00) 10.2 5.28 (22:10) 2.78 (01:30) 0 0 0 0 0
02-01-2020 13.1 (15:10) 3.4 (00:00) 8.3 2.78 (15:40) 1.67 (15:40) 0 0 0 0 0
29-12-2019 13.4 (14:30) 7.2 (00:00) 10.3 3.06 (02:20) 2.5 (03:00) 0 0 0 0 0
21-12-2019 13.5 (11:10) 8.5 (00:00) 11 22.78 (11:40) 8.89 (18:00) 48.8 24.6 17.4 5.8 1
27-12-2019 13.5 (14:20) 6.2 (00:00) 9.8 3.33 (20:40) 1.94 (09:10) 0 0 0 0 0
09-01-2020 13.7 (15:00) 4.5 (00:00) 9.1 3.89 (22:10) 2.5 (22:10) 0 0 0 0 0
28-12-2019 15.1 (14:10) 8.2 (00:00) 11.7 6.11 (07:50) 3.06 (08:20) 0 0 0 0 0
24-12-2019 15.2 (15:10) 7.6 (00:00) 11.4 7.22 (22:50) 5.28 (22:40) 0 0 0 0 0
25-12-2019 15.9 (13:40) 8 (00:00) 11.9 5.56 (23:40) 2.22 (22:30) 0 0 0 0 0

Gráficas

Temp. máximas Temp. mínimas Temp. medias Precipitaciones Rachas de viento máximas Velocidades máximas media en intervalos de 10 minutos

Datos horarios

Fecha y hora oficial Temperatura (ºC) Velocidad del viento (km/h) Dirección del viento Racha (km/h) Dirección de racha Precipitación (mm) Presión (hPa) Tendencia (hPa) Humedad (%)
2020-01-17 23:00:00 4.5 4 Sur 8 Sudoeste 0 -- -- 89
2020-01-17 22:00:00 4.8 4 Sur 8 Sudeste 0 -- -- 90
2020-01-17 21:00:00 4.7 4 Sur 8 Sudoeste 0 -- -- 90
2020-01-17 20:00:00 4.8 3 Sur 6 Sur 0 -- -- 88
2020-01-17 19:00:00 5.1 4 Sur 8 Oeste 0 -- -- 87
2020-01-17 18:00:00 7.1 4 Sur 14 Sudoeste 0 -- -- 79
2020-01-17 17:00:00 8.5 5 Oeste 20 Oeste 0 -- -- 78
2020-01-17 16:00:00 8.5 8 Noroeste 18 Noroeste 0 -- -- 82
2020-01-17 15:00:00 8.7 8 Oeste 21 Oeste 0 -- -- 81
2020-01-17 14:00:00 8.3 9 Oeste 23 Oeste 0 -- -- 85
2020-01-17 13:00:00 8 8 Oeste 25 Sudoeste 0 -- -- 90
2020-01-17 12:00:00 7.6 10 Sudoeste 21 Oeste 0 -- -- 94
2020-01-17 11:00:00 7.7 7 Oeste 26 Sudoeste 0 -- -- 90
2020-01-17 10:00:00 7.3 12 Oeste 27 Sudoeste 0 -- -- 87
2020-01-17 09:00:00 6.7 10 Oeste 20 Sudoeste 0 -- -- 90
2020-01-17 08:00:00 6.8 5 Oeste 17 Sudoeste 0 -- -- 89
2020-01-17 07:00:00 6.9 8 Oeste 23 Sudoeste 0 -- -- 88
2020-01-17 06:00:00 7 8 Oeste 28 Sudoeste 0 -- -- 87
2020-01-17 05:00:00 7 8 Oeste 21 Sudoeste 0 -- -- 91
2020-01-17 04:00:00 7.2 6 Sudoeste 25 Sur 0 -- -- 89
2020-01-17 03:00:00 7.5 9 Oeste 28 Sur 0 -- -- 89
2020-01-17 02:00:00 7.6 10 Sudeste 58 Sudoeste 0 -- -- 92
2020-01-17 01:00:00 6.9 12 Noroeste 49 Noroeste 0.4 -- -- 94
2020-01-17 00:00:00 7.4 10 Noroeste 39 Noroeste 0 -- -- 79
2020-01-16 23:00:00 8.3 10 Oeste 37 Noroeste 0.2 -- -- 64
2020-01-16 22:00:00 9.1 12 Sudoeste 32 Sudoeste 0 -- -- 60
2020-01-16 21:00:00 9.3 8 Noroeste 23 Oeste 0 -- -- 61
2020-01-16 20:00:00 8.7 7 Este 29 Oeste 0 -- -- 63
2020-01-16 19:00:00 8.9 8 Nordeste 22 Oeste 0 -- -- 66
2020-01-16 18:00:00 9.9 6 Oeste 21 Sudoeste 0 -- -- 63
2020-01-16 17:00:00 10.9 9 Sudoeste 33 Sudoeste 0 -- -- 54
2020-01-16 16:00:00 11.8 14 Oeste 32 Sudoeste 0 -- -- 46
2020-01-16 15:00:00 12.4 10 Oeste 24 Sudoeste 0 -- -- 45
2020-01-16 14:00:00 11.9 8 Sudoeste 26 Noroeste 0 -- -- 53
2020-01-16 13:00:00 11.4 4 Norte 17 Sudeste 0 -- -- 62
2020-01-16 12:00:00 9.1 10 Sudeste 22 Este 0 -- -- 88
2020-01-16 11:00:00 7.3 9 Sudeste 24 Este 0 -- -- 94
2020-01-16 10:00:00 7.2 12 Sudeste 24 Este 0 -- -- 95
2020-01-16 09:00:00 7.4 4 Sudeste 16 Este 0 -- -- 98
2020-01-16 08:00:00 7.7 6 Este 11 Sur 0 -- -- 100
2020-01-16 07:00:00 7.8 3 Oeste 12 Este 0 -- -- 100
2020-01-16 06:00:00 7.7 4 Sudeste 12 Este 0 -- -- 99
2020-01-16 05:00:00 7.7 5 Sudeste 19 Sudeste 0 -- -- 100
2020-01-16 04:00:00 7.8 7 Sudeste 19 Este 0.4 -- -- 100
2020-01-16 03:00:00 7.8 8 Sudeste 15 Sudeste 0 -- -- 100
2020-01-16 02:00:00 7.8 8 Sudeste 20 Este 0 -- -- 100
2020-01-16 01:00:00 8.2 12 Sudeste 19 Sudeste 0 -- -- 97
2020-01-16 00:00:00 8.5 5 Sudeste 15 Este 0 -- -- 96
2020-01-15 23:00:00 8.5 7 Sudeste 15 Este 0 -- -- 97
2020-01-15 22:00:00 8.4 6 Sudeste 22 Sudeste 0 -- -- 96
2020-01-15 21:00:00 8.6 11 Sudeste 22 Este 0 -- -- 94
2020-01-15 20:00:00 8.5 13 Sudeste 22 Este 0 -- -- 94
2020-01-15 19:00:00 8.6 7 Sudeste 18 Este 0 -- -- 91
2020-01-15 18:00:00 9.5 6 Sur 22 Sudoeste 0 -- -- 85
2020-01-15 17:00:00 9.4 7 Sur 23 Sudeste 0 -- -- 89
2020-01-15 16:00:00 9.4 9 Norte 29 Sur 0 -- -- 87
2020-01-15 15:00:00 9.4 12 Oeste 38 Oeste 0 -- -- 88
2020-01-15 14:00:00 8.8 10 Oeste 32 Sudeste 0 -- -- 89
2020-01-15 13:00:00 8.8 10 Nordeste 34 Sudoeste 0 -- -- 88
2020-01-15 12:00:00 8.4 11 Sur 37 Oeste 0 -- -- 87
2020-01-15 11:00:00 8 8 Sudeste 42 Oeste 0.2 -- -- 88
2020-01-15 10:00:00 6.6 11 Norte 42 Sudoeste 0.4 -- -- 91
2020-01-15 09:00:00 6.2 9 Nordeste 22 Nordeste 0 -- -- 88
2020-01-15 08:00:00 6.3 9 Nordeste 29 Nordeste 0.2 -- -- 85
2020-01-15 07:00:00 6.8 8 Este 27 Sudoeste 0 -- -- 76
2020-01-15 06:00:00 5.9 9 Este 34 Oeste 0 -- -- 79
2020-01-15 05:00:00 5.7 7 Sudeste 21 Sur 0 -- -- 79
2020-01-15 04:00:00 5.8 4 Este 16 Este 0 -- -- 79
2020-01-15 03:00:00 6.1 5 Este 21 Oeste 0 -- -- 83
2020-01-15 02:00:00 6.5 7 Oeste 22 Sudoeste 0 -- -- 84
2020-01-15 01:00:00 6.3 4 Nordeste 26 Noroeste 0 -- -- 87
2020-01-15 00:00:00 6.9 9 Norte 21 Sur 0 -- -- 85
2020-01-14 23:00:00 7 10 Sudoeste 30 Oeste 0 -- -- 86
2020-01-14 22:00:00 6.8 9 Sudeste 27 Sudeste 0 -- -- 85
2020-01-14 21:00:00 6.4 6 Sudeste 19 Este 0 -- -- 87
2020-01-14 20:00:00 6.6 3 Nordeste 29 Noroeste 0 -- -- 84
2020-01-14 19:00:00 7.1 4 Sudoeste 18 Sur 0 -- -- 81
2020-01-14 18:00:00 7.2 6 Sudoeste 16 Sudoeste 0 -- -- 79
2020-01-14 17:00:00 8 5 Sur 17 Oeste 0 -- -- 75
2020-01-14 16:00:00 9.2 5 Oeste 18 Noroeste 0 -- -- 69
2020-01-14 15:00:00 9.7 5 Noroeste 18 Noroeste 0 -- -- 68
2020-01-14 14:00:00 9.6 6 Oeste 20 Noroeste 0 -- -- 69
2020-01-14 13:00:00 8.3 5 Noroeste 13 Sudoeste 0 -- -- 72
2020-01-14 12:00:00 6.8 3 Oeste 10 Sur 0 -- -- 79
2020-01-14 11:00:00 3.7 5 Sudoeste 10 Sudoeste 0 -- -- 86
2020-01-14 10:00:00 1.6 3 Sur 8 Sudoeste 0 -- -- 93
2020-01-14 09:00:00 0.9 4 Sudeste 15 Sudoeste 0 -- -- 90
2020-01-14 08:00:00 2 5 Sudoeste 15 Sudoeste 0 -- -- 90
2020-01-14 07:00:00 2 5 Sudoeste 13 Oeste 0 -- -- 87
2020-01-14 06:00:00 2.1 6 Sudoeste 13 Sudoeste 0 -- -- 88
2020-01-14 05:00:00 2 4 Sudoeste 14 Sudoeste 0 -- -- 85
2020-01-14 04:00:00 3.9 8 Sudoeste 20 Sur 0 -- -- 81
2020-01-14 03:00:00 4 9 Sur 19 Sur 0 -- -- 79
2020-01-14 02:00:00 3.4 5 Oeste 15 Oeste 0 -- -- 84
2020-01-14 01:00:00 2.4 3 Oeste 15 Oeste 0 -- -- 85
2020-01-14 00:00:00 4.5 6 Oeste 17 Sudoeste 0 -- -- 76
2020-01-13 23:00:00 4.9 10 Sur 25 Sudoeste 0 -- -- 71
2020-01-13 22:00:00 4 3 Nordeste 17 Oeste 0 -- -- 71
2020-01-13 21:00:00 4 6 Oeste 17 Oeste 0 -- -- 68
2020-01-13 20:00:00 2.5 4 Sur 12 Este 0 -- -- 71
2020-01-13 19:00:00 3.3 3 Oeste 12 Sudoeste 0 -- -- 72
2020-01-13 18:00:00 4.9 4 Sur 9 Sur 0 -- -- 71
2020-01-13 17:00:00 7.3 3 Oeste 14 Noroeste 0 -- -- 63
2020-01-13 16:00:00 8.5 7 Noroeste 21 Noroeste 0 -- -- 61
2020-01-13 15:00:00 8.6 8 Oeste 17 Oeste 0 -- -- 60
2020-01-13 14:00:00 8.1 7 Oeste 18 Oeste 0 -- -- 57
2020-01-13 13:00:00 8 7 Oeste 19 Oeste 0 -- -- 58
2020-01-13 12:00:00 7 8 Oeste 18 Oeste 0 -- -- 52
2020-01-13 11:00:00 3.7 0 Calma 6 Sur 0 -- -- 69
2020-01-13 10:00:00 2 5 Sur 11 Sudeste 0 -- -- 69
2020-01-13 09:00:00 0.9 4 Sur 8 Sudeste 0 -- -- 65
2020-01-13 08:00:00 0.7 4 Sur 8 Sur 0 -- -- 68
2020-01-13 07:00:00 0.9 6 Sur 9 Sur 0 -- -- 71
2020-01-13 06:00:00 0.8 6 Sur 9 Sur 0 -- -- 74
2020-01-13 05:00:00 0.9 6 Sur 8 Sur 0 -- -- 74
2020-01-13 04:00:00 1.2 6 Sur 8 Sur 0 -- -- 72
2020-01-13 03:00:00 1.2 5 Sur 8 Sur 0 -- -- 68
2020-01-13 02:00:00 1.2 5 Sur 9 Sur 0 -- -- 67
2020-01-13 01:00:00 2 5 Sur 9 Sur 0 -- -- 64
2020-01-13 00:00:00 1.8 6 Sur 8 Sur 0 -- -- 59
2020-01-12 23:00:00 1.5 5 Sur 9 Sur 0 -- -- 62
2020-01-12 22:00:00 1.4 5 Sur 8 Sur 0 -- -- 67
2020-01-12 21:00:00 1.4 5 Sur 8 Sudeste 0 -- -- 76
2020-01-12 20:00:00 1.9 5 Sur 8 Sur 0 -- -- 78
2020-01-12 19:00:00 2.5 5 Sur 8 Sur 0 -- -- 77
2020-01-12 18:00:00 3.6 5 Sudoeste 8 Sudoeste 0 -- -- 74
2020-01-12 17:00:00 5.5 5 Sudoeste 11 Noroeste 0 -- -- 67
2020-01-12 16:00:00 10.3 4 Oeste 13 Oeste 0 -- -- 51
2020-01-12 15:00:00 10 5 Oeste 14 Oeste 0 -- -- 53
2020-01-12 14:00:00 9.8 6 Oeste 13 Oeste 0 -- -- 56
2020-01-12 13:00:00 8 4 Oeste 10 Oeste 0 -- -- 59
2020-01-12 12:00:00 4.8 4 Sur 6 Sudeste 0 -- -- 70
2020-01-12 11:00:00 2.1 5 Sur 9 Sur 0 -- -- 78
2020-01-12 10:00:00 1.2 5 Sur 6 Sudeste 0 -- -- 81
2020-01-12 09:00:00 0.9 5 Sur 9 Sur 0 -- -- 79
2020-01-12 08:00:00 0.6 5 Sur 6 Sur 0 -- -- 82
2020-01-12 07:00:00 0.7 5 Sur 8 Sudeste 0 -- -- 81
2020-01-12 06:00:00 1.1 5 Sur 8 Sur 0 -- -- 83
2020-01-12 05:00:00 1.1 5 Sur 7 Sudeste 0 -- -- 77
2020-01-12 04:00:00 1.2 5 Sur 8 Sur 0 -- -- 77
2020-01-12 03:00:00 1.7 6 Sur 8 Sur 0 -- -- 76
2020-01-12 02:00:00 2 6 Sur 8 Sur 0 -- -- 77
2020-01-12 01:00:00 1.9 5 Sur 9 Sur 0 -- -- 78
2020-01-12 00:00:00 2.1 6 Sur 8 Sur 0 -- -- 78
2020-01-11 23:00:00 2 5 Sur 7 Sur 0 -- -- 77
2020-01-11 22:00:00 2.2 4 Sudoeste 9 Sudeste 0 -- -- 77
2020-01-11 21:00:00 2.3 5 Sur 8 Sur 0 -- -- 79
2020-01-11 20:00:00 2.4 5 Sur 7 Sudeste 0 -- -- 79
2020-01-11 19:00:00 2.8 4 Sur 8 Sur 0 -- -- 76
2020-01-11 18:00:00 3.8 5 Sur 9 Sur 0 -- -- 73
2020-01-11 17:00:00 5.5 4 Sur 8 Sudeste 0 -- -- 67
2020-01-11 16:00:00 10.8 3 Oeste 11 Norte 0 -- -- 50
2020-01-11 15:00:00 9.7 3 Sudeste 15 Norte 0 -- -- 51
2020-01-11 14:00:00 10.1 7 Norte 13 Nordeste 0 -- -- 49
2020-01-11 13:00:00 9.7 4 Sur 13 Sudeste 0 -- -- 49
2020-01-11 12:00:00 7.7 7 Sudeste 21 Sudeste 0 -- -- 49
2020-01-11 11:00:00 4.8 11 Sudeste 25 Sudeste 0 -- -- 59
2020-01-11 10:00:00 3.8 9 Sudeste 23 Este 0 -- -- 64
2020-01-11 09:00:00 3.3 8 Sudeste 23 Este 0 -- -- 69
2020-01-11 08:00:00 3.6 8 Sur 23 Este 0 -- -- 68
2020-01-11 07:00:00 3.9 8 Sudeste 28 Este 0 -- -- 66
2020-01-11 06:00:00 4 8 Este 29 Este 0 -- -- 65
2020-01-11 05:00:00 4.3 8 Sudeste 26 Sudeste 0 -- -- 65
2020-01-11 04:00:00 4.5 8 Sudeste 23 Este 0 -- -- 67
2020-01-11 03:00:00 4.6 8 Sudeste 24 Este 0 -- -- 67
2020-01-11 02:00:00 4.8 7 Este 20 Este 0 -- -- 64
2020-01-11 01:00:00 5.1 6 Sudeste 19 Sudeste 0 -- -- 63
2020-01-11 00:00:00 5.1 6 Sudeste 19 Este 0 -- -- 63
2020-01-10 23:00:00 5.2 6 Sudeste 27 Sudeste 0 -- -- 63
2020-01-10 22:00:00 5.3 8 Sudeste 23 Sudeste 0 -- -- 62
2020-01-10 21:00:00 5.5 7 Este 27 Norte 0 -- -- 62
2020-01-10 20:00:00 5.9 8 Este 29 Sur 0 -- -- 62
2020-01-10 19:00:00 6 6 Sudeste 22 Este 0 -- -- 61
2020-01-10 18:00:00 6.5 7 Este 23 Este 0 -- -- 62
2020-01-10 17:00:00 6.8 5 Nordeste 21 Nordeste 0 -- -- 59
2020-01-10 16:00:00 8.1 8 Nordeste 26 Sudeste 0 -- -- 56
2020-01-10 15:00:00 8.4 9 Nordeste 26 Este 0 -- -- 58
2020-01-10 14:00:00 7.8 8 Norte 24 Nordeste 0 -- -- 59
2020-01-10 13:00:00 7 11 Nordeste 35 Norte 0 -- -- 60
2020-01-10 12:00:00 7 9 Nordeste 28 Este 0 -- -- 59
2020-01-10 11:00:00 5.1 9 Sur 26 Sudeste 0 -- -- 68
2020-01-10 10:00:00 4.8 9 Sudeste 28 Nordeste 0 -- -- 79
2020-01-10 09:00:00 4.7 3 Sur 18 Sudeste 0 -- -- 88
2020-01-10 08:00:00 4.5 5 Sudeste 17 Este 0 -- -- 89
2020-01-10 07:00:00 4.8 9 Sudeste 18 Sur 0 -- -- 89
2020-01-10 06:00:00 1.6 4 Sur 7 Sudeste 0 -- -- 90
2020-01-10 05:00:00 1.9 4 Sur 7 Sur 0 -- -- 89
2020-01-10 04:00:00 2.4 3 Sur 10 Oeste 0 -- -- 87
2020-01-10 03:00:00 5.5 6 Sudoeste 18 Sur 0 -- -- 78
2020-01-10 02:00:00 6 7 Sudoeste 19 Sudoeste 0 -- -- 80
2020-01-10 01:00:00 6.7 7 Sudoeste 18 Sudoeste 0 -- -- 91
2020-01-10 00:00:00 7.3 5 Oeste 11 Sudoeste 0 -- -- 95
2020-01-09 23:00:00 5.6 3 Sur 14 Sudoeste 0 -- -- 95
2020-01-09 22:00:00 6.4 4 Sudoeste 9 Sudoeste 0 -- -- 95
2020-01-09 21:00:00 6.2 3 Sur 7 Noroeste 0 -- -- 88
2020-01-09 20:00:00 6.2 3 Sur 8 Este 0 -- -- 88
2020-01-09 19:00:00 5.5 4 Sur 8 Sudoeste 0 -- -- 86
2020-01-09 18:00:00 7.3 4 Sudoeste 8 Sudoeste 0 -- -- 80
2020-01-09 17:00:00 9.8 4 Sudoeste 11 Sudoeste 0 -- -- 71
2020-01-09 16:00:00 12.7 7 Oeste 14 Oeste 0 -- -- 59
2020-01-09 15:00:00 13.7 2 Oeste 10 Noroeste 0 -- -- 53
2020-01-09 14:00:00 12.3 5 Oeste 11 Sudoeste 0 -- -- 54
2020-01-09 13:00:00 11 4 Sudoeste 9 Oeste 0 -- -- 56
2020-01-09 12:00:00 8.9 3 Sudoeste 10 Oeste 0 -- -- 63
2020-01-09 11:00:00 5.7 5 Sur 8 Sur 0 -- -- 68
2020-01-09 10:00:00 4.7 4 Sur 10 Oeste 0 -- -- 74
2020-01-09 09:00:00 4.7 4 Sur 8 Sur 0 -- -- 69
2020-01-09 08:00:00 4.5 6 Sur 9 Sudeste 0 -- -- 67
2020-01-09 07:00:00 4.5 5 Sudeste 8 Sudeste 0 -- -- 60
2020-01-09 06:00:00 4.9 5 Sur 8 Sudeste 0 -- -- 54
2020-01-09 05:00:00 4.8 6 Sur 9 Sur 0 -- -- 46
2020-01-09 04:00:00 5 5 Sur 8 Sur 0 -- -- 40
2020-01-09 03:00:00 5.2 4 Sur 9 Sur 0 -- -- 42
2020-01-09 02:00:00 5.3 5 Sur 9 Sur 0 -- -- 42
2020-01-09 01:00:00 5.2 6 Sudoeste 9 Sur 0 -- -- 42
2020-01-09 00:00:00 5.3 5 Sur 9 Sudeste 0 -- -- 44
2020-01-08 23:00:00 5.4 5 Sur 8 Sur 0 -- -- 47
2020-01-08 22:00:00 5.4 5 Sur 8 Sur 0 -- -- 50
2020-01-08 21:00:00 5.5 5 Sur 7 Sudeste 0 -- -- 61
2020-01-08 20:00:00 6.1 4 Sur 7 Sudeste 0 -- -- 62
2020-01-08 19:00:00 6.5 4 Sur 6 Sudeste 0 -- -- 69
2020-01-08 18:00:00 7.4 4 Sur 6 Sudeste 0 -- -- 76
2020-01-08 17:00:00 8.7 2 Sur 5 Sur 0 -- -- 71
2020-01-08 16:00:00 11.5 0 Calma 4 Sur 0 -- -- 58
2020-01-08 15:00:00 12.3 0 Calma 5 Norte 0 -- -- 52
2020-01-08 14:00:00 12.3 0 Calma 3 Este 0 -- -- 48
2020-01-08 13:00:00 10.8 0 Calma 5 Sudeste 0 -- -- 43
2020-01-08 12:00:00 8.9 2 Sur 6 Sur 0 -- -- 43
2020-01-08 11:00:00 6.9 4 Sur 6 Sur 0 -- -- 48
2020-01-08 10:00:00 6.2 2 Sur 6 Sur 0 -- -- 48
2020-01-08 09:00:00 5.1 3 Sur 6 Sudeste 0 -- -- 47
2020-01-08 08:00:00 5.1 4 Sur 6 Sudeste 0 -- -- 44
2020-01-08 07:00:00 5.3 0 Calma 6 Sudeste 0 -- -- 46
2020-01-08 06:00:00 5.9 4 Sur 7 Sudeste 0 -- -- 47
2020-01-08 05:00:00 6.2 5 Sur 8 Sur 0 -- -- 46
2020-01-08 04:00:00 6.1 5 Sur 7 Sudeste 0 -- -- 47
2020-01-08 03:00:00 5.9 4 Sur 8 Sudeste 0 -- -- 48
2020-01-08 02:00:00 6.1 5 Sur 7 Sur 0 -- -- 46
2020-01-08 01:00:00 6.3 6 Sur 9 Sudeste 0 -- -- 46
2020-01-08 00:00:00 6.2 6 Sur 8 Sur 0 -- -- 46
2020-01-07 23:00:00 6.3 6 Sur 9 Sudeste 0 -- -- 45
2020-01-07 22:00:00 6.1 6 Sur 9 Sudeste 0 -- -- 46
2020-01-07 21:00:00 6.2 6 Sur 9 Sudeste 0 -- -- 45
2020-01-07 20:00:00 6.1 5 Sur 9 Sur 0 -- -- 49
2020-01-07 19:00:00 6.4 5 Sur 8 Sudeste 0 -- -- 51
2020-01-07 18:00:00 7.1 5 Sur 9 Sur 0 -- -- 53
2020-01-07 17:00:00 7.8 6 Sur 9 Sur 0 -- -- 51
2020-01-07 16:00:00 10.1 2 Sur 5 Sudoeste 0 -- -- 44
2020-01-07 15:00:00 11.2 3 Sur 6 Sudoeste 0 -- -- 43
2020-01-07 14:00:00 11.3 4 Sudoeste 9 Oeste 0 -- -- 45
2020-01-07 13:00:00 9.4 4 Sur 8 Sur 0 -- -- 47
2020-01-07 12:00:00 8.1 4 Sur 6 Sur 0 -- -- 50
2020-01-07 11:00:00 5.8 5 Sur 6 Sur 0 -- -- 52
2020-01-07 10:00:00 5.5 5 Sur 9 Sur 0 -- -- 52
2020-01-07 09:00:00 5.2 5 Sur 9 Sur 0 -- -- 52
2020-01-07 08:00:00 5.2 5 Sur 9 Sudeste 0 -- -- 53
2020-01-07 07:00:00 5 5 Sur 9 Sur 0 -- -- 54
2020-01-07 06:00:00 4.6 6 Sur 9 Sur 0 -- -- 58
2020-01-07 05:00:00 4.7 4 Sur 8 Sur 0 -- -- 57
2020-01-07 04:00:00 4.5 4 Sur 8 Sur 0 -- -- 58
2020-01-07 03:00:00 4.4 6 Sur 8 Sudeste 0 -- -- 61
2020-01-07 02:00:00 4.8 5 Sur 9 Sudeste 0 -- -- 64
2020-01-07 01:00:00 4.6 5 Sur 9 Sur 0 -- -- 66
2020-01-07 00:00:00 4.4 6 Sur 8 Sur 0 -- -- 71
2020-01-06 23:00:00 4.5 5 Sur 7 Sur 0 -- -- 71
2020-01-06 22:00:00 4.4 5 Sur 9 Sudeste 0 -- -- 76
2020-01-06 21:00:00 4.4 6 Sur 9 Sur 0 -- -- 85
2020-01-06 20:00:00 4.3 5 Sur 9 Sur 0 -- -- 86
2020-01-06 19:00:00 4.5 5 Sur 9 Sur 0 -- -- 86
2020-01-06 18:00:00 5.6 5 Sur 12 Sudoeste 0 -- -- 82
2020-01-06 17:00:00 6.6 4 Sur 8 Sur 0 -- -- 77
2020-01-06 16:00:00 9.2 4 Sur 8 Oeste 0 -- -- 66
2020-01-06 15:00:00 12 5 Oeste 12 Noroeste 0 -- -- 59
2020-01-06 14:00:00 9.2 2 Sur 9 Sudoeste 0 -- -- 63
2020-01-06 13:00:00 8.8 4 Oeste 10 Oeste 0 -- -- 67
2020-01-06 12:00:00 6.2 4 Sur 6 Sur 0 -- -- 67
2020-01-06 11:00:00 3.9 5 Sur 7 Sur 0 -- -- 73
2020-01-06 10:00:00 3.6 6 Sur 9 Sur 0 -- -- 74